Latest Weather Observations for Learmonth

IDW60801

Issued at 6:33 pm WST Sunday 24 July 2016 (issued every 30 minutes, with the page automatically refreshed every 10 minutes)

About weather observations | Map of weather stations | Latest weather observations for WA | Other Formats
Station Details ID: 005007 Name: LEARMONTH AIRPORT Lat: -22.24 Lon: 114.10 Height: 5.0 m
Data from the previous 72 hours. | See also: Recent months at Learmonth
Date/Time
WST
Temp
°C
App
Temp
°C
Dew
Point
°C
Rel
Hum
%
Delta-T
°C
Wind Press
QNH
hPa
Press
MSL
hPa
Rain since
9am
mm
Dir  Spd
km/h
Gust
km/h
Spd
kts
Gust
kts
24/06:30pm 17.9 18.7 17.2 96 0.4 SSE 9 11 5 6 1018.4 - 5.0
24/06:00pm 17.9 17.9 17.1 95 0.5 SE 13 15 7 8 1018.0 1017.9 5.0
24/05:56pm 17.9 18.3 17.2 96 0.4 ESE 11 15 6 8 1017.9 - 5.0
24/05:43pm 18.0 18.4 17.3 96 0.4 ESE 11 15 6 8 1018.0 - 5.0
24/05:30pm 18.1 18.9 17.3 95 0.5 ESE 9 15 5 8 1017.8 - 5.0
24/05:00pm 17.8 17.0 17.0 95 0.5 SE 17 24 9 13 1017.5 - 5.0
24/04:30pm 17.6 16.1 16.8 95 0.5 ESE 20 26 11 14 1017.4 - 5.0
24/04:00pm 17.7 16.5 17.0 96 0.4 ESE 19 24 10 13 1017.5 - 5.0
24/03:45pm 17.7 16.9 17.2 97 0.3 ESE 17 20 9 11 1017.3 - 4.6
24/03:30pm 17.7 17.2 16.9 95 0.5 ESE 15 20 8 11 1017.5 - 4.6
24/03:23pm 17.6 17.8 16.8 95 0.5 SE 11 15 6 8 1017.8 - 4.6
24/03:00pm 17.7 18.3 16.7 94 0.6 SSE 9 11 5 6 1018.0 1017.9 4.6
24/02:30pm 17.8 17.9 16.6 93 0.7 S 11 13 6 7 1017.9 - 4.4
24/02:00pm 17.6 17.7 16.4 93 0.7 S 11 13 6 7 1018.1 - 4.0
24/01:30pm 17.4 17.2 16.6 95 0.5 S 13 15 7 8 1018.3 - 3.8
24/01:11pm 17.3 17.0 16.5 95 0.5 S 13 17 7 9 1018.5 - 3.2
24/01:00pm 17.3 17.3 16.3 94 0.6 S 11 15 6 8 1018.7 - 3.0
24/12:56pm 17.2 17.2 16.2 94 0.6 S 11 15 6 8 1018.7 - 3.0
24/12:47pm 17.2 17.1 16.0 93 0.7 S 11 13 6 7 1018.9 - 2.8
24/12:30pm 17.0 17.2 15.8 93 0.7 SSE 9 13 5 7 1019.2 - 2.4
24/12:18pm 17.1 17.6 15.6 91 0.9 SE 7 11 4 6 1019.2 - 2.0
24/12:10pm 17.2 17.4 15.7 91 0.9 SSE 9 13 5 7 1019.4 - 1.8
24/12:00pm 17.2 17.8 15.7 91 0.9 SSE 7 9 4 5 1019.6 1019.5 1.4
24/11:43am 17.3 17.4 15.6 90 1.0 SE 9 13 5 7 1019.7 - 1.4
24/11:38am 17.3 17.9 15.9 91 0.8 SE 7 11 4 6 1019.7 - 1.4
24/11:30am 17.4 18.0 15.9 91 0.9 SE 7 11 4 6 1019.7 - 1.4
24/11:11am 17.4 17.4 16.2 93 0.7 SSE 11 15 6 8 1019.8 - 1.4
24/11:00am 17.1 17.4 15.9 93 0.7 S 9 13 5 7 1020.0 - 1.2
24/10:30am 17.0 16.8 15.6 91 0.8 S 11 15 6 8 1020.1 - 1.0
24/10:00am 16.7 17.2 15.5 93 0.7 SSE 7 11 4 6 1020.3 - 0.6
24/09:30am 16.6 16.5 15.0 90 0.9 S 9 13 5 7 1020.1 - 0.0
24/09:00am 16.6 17.0 15.4 93 0.7 SSW 7 9 4 5 1019.9 1019.8 3.4
24/08:53am 16.5 17.1 15.3 93 0.7 SSW 6 9 3 5 1019.8 - 3.4
24/08:30am 16.2 16.8 15.2 94 0.6 W 6 7 3 4 1019.5 - 3.4
24/08:09am 16.0 16.3 15.1 94 0.5 SSW 7 9 4 5 1019.1 - 3.4
24/08:00am 15.8 16.1 14.9 94 0.5 SSW 7 9 4 5 1018.8 - 3.4
24/07:30am 15.5 15.7 14.8 96 0.4 SSW 7 9 4 5 1018.3 - 3.4
24/07:00am 15.4 15.5 14.5 94 0.5 SW 7 9 4 5 1018.1 - 3.4
24/06:30am 15.4 15.6 14.7 96 0.4 WSW 7 9 4 5 1017.8 - 3.4
24/06:00am 15.3 15.6 14.6 96 0.4 WSW 6 7 3 4 1017.5 1017.4 3.4
24/05:30am 15.2 14.6 14.5 96 0.4 SW 11 15 6 8 1017.2 - 3.4
24/05:00am 15.3 14.3 14.6 96 0.4 S 13 15 7 8 1017.3 - 3.0
24/04:30am 15.4 15.1 14.5 94 0.5 SSE 9 11 5 6 1017.3 - 2.4
24/04:00am 15.3 16.8 14.6 96 0.4 CALM 0 6 0 3 1017.7 - 2.2
24/03:30am 15.2 14.9 14.5 96 0.4 SSW 9 13 5 7 1017.9 - 2.0
24/03:00am 15.3 14.7 14.6 96 0.4 S 11 13 6 7 1018.0 1017.9 2.0
24/02:30am 15.4 16.8 14.5 94 0.5 CALM 0 4 0 2 1018.5 - 1.4
24/02:00am 15.4 15.1 14.3 93 0.6 SW 9 11 5 6 1018.7 - 1.0
24/01:30am 15.5 14.4 14.3 92 0.7 SSW 13 17 7 9 1018.8 - 1.0
24/01:00am 15.7 15.4 14.3 91 0.8 WSW 9 13 5 7 1018.9 - 0.6
24/12:30am 15.6 15.3 14.4 93 0.7 SW 9 11 5 6 1019.0 - 0.4
24/12:00am 15.6 15.6 14.2 91 0.8 SSW 7 9 4 5 1018.9 1018.8 0.2
 
Date/Time
WST
Temp
°C
App
Temp
°C
Dew
Point
°C
Rel
Hum
%
Delta-T
°C
Wind Press
QNH
hPa
Press
MSL
hPa
Rain since
9am
mm
Dir  Spd
km/h
Gust
km/h
Spd
kts
Gust
kts
23/11:30pm 15.6 14.4 14.0 90 0.9 S 13 17 7 9 1019.1 - 0.2
23/11:00pm 16.4 16.1 14.3 87 1.2 SW 9 11 5 6 1019.4 - 0.0
23/10:30pm 16.6 16.6 14.3 86 1.3 SW 7 11 4 6 1019.2 - 0.0
23/10:00pm 16.8 16.5 14.3 85 1.4 SW 9 13 5 7 1018.8 - 0.0
23/09:30pm 16.9 15.4 14.1 83 1.6 S 15 19 8 10 1018.3 - 0.0
23/09:00pm 17.1 15.9 14.1 82 1.7 S 13 19 7 10 1018.6 1018.5 0.0
23/08:30pm 17.4 15.0 13.9 80 2.0 SE 19 24 10 13 1018.2 - 0.0
23/08:00pm 17.4 15.8 13.9 80 2.0 ESE 15 20 8 11 1018.3 - 0.0
23/07:30pm 17.4 15.7 13.7 79 2.1 ESE 15 20 8 11 1018.0 - 0.0
23/07:00pm 17.5 15.9 14.0 80 2.0 ESE 15 20 8 11 1018.0 - 0.0
23/06:30pm 17.5 16.2 13.6 78 2.2 ESE 13 15 7 8 1017.6 - 0.0
23/06:00pm 17.5 17.0 13.8 79 2.1 SE 9 13 5 7 1017.5 1017.4 0.0
23/05:30pm 17.9 15.6 13.1 73 2.7 SSE 17 22 9 12 1017.1 - 0.0
23/05:00pm 18.2 15.3 12.8 71 3.0 SSE 20 28 11 15 1016.6 - 0.0
23/04:30pm 18.4 15.6 13.1 71 3.0 SSE 20 28 11 15 1016.9 - 0.0
23/04:00pm 18.2 14.6 13.2 72 2.8 S 24 32 13 17 1016.9 - 0.0
23/03:30pm 17.8 14.0 13.6 76 2.4 SSE 26 32 14 17 1016.9 - 0.0
23/03:00pm 17.9 14.0 13.3 74 2.6 SSE 26 35 14 19 1017.1 1017.0 0.0
23/02:30pm 17.4 13.4 13.1 76 2.4 SSE 26 35 14 19 1017.6 - 0.0
23/02:00pm 17.4 13.6 13.7 79 2.1 S 26 33 14 18 1017.6 - 0.0
23/01:30pm 17.5 14.1 13.8 79 2.1 S 24 30 13 16 1017.8 - 0.0
23/01:00pm 17.1 14.1 13.7 80 1.9 S 22 32 12 17 1018.3 - 0.0
23/12:30pm 16.9 13.3 14.1 83 1.6 S 26 32 14 17 1018.9 - 0.0
23/12:00pm 16.6 12.9 13.8 83 1.6 S 26 32 14 17 1019.4 1019.3 0.0
23/11:30am 16.4 13.8 13.7 84 1.5 S 20 30 11 16 1019.5 - 0.0
23/11:00am 16.2 13.6 13.7 85 1.4 S 20 26 11 14 1019.6 - 0.0
23/10:30am 15.9 13.8 13.6 86 1.3 S 17 22 9 12 1019.5 - 0.0
23/10:00am 15.8 14.0 13.3 85 1.4 SSE 15 17 8 9 1019.3 - 0.0
23/09:30am 15.4 14.5 13.6 89 1.0 S 11 15 6 8 1019.3 - 0.0
23/09:00am 14.5 13.4 13.2 92 0.7 SW 11 13 6 7 1019.1 1019.0 6.2
23/08:30am 14.3 13.2 13.0 92 0.7 SW 11 15 6 8 1018.7 - 5.8
23/08:00am 13.9 14.3 12.6 92 0.7 SW 2 7 1 4 1018.1 - 5.6
23/07:38am 13.7 13.1 12.4 92 0.7 S 7 11 4 6 1017.9 - 5.6
23/07:30am 13.7 12.4 12.4 92 0.7 SSW 11 15 6 8 1018.2 - 5.6
23/07:18am 13.8 12.4 12.3 91 0.8 S 11 13 6 7 1018.2 - 5.4
23/07:00am 13.8 12.4 12.3 91 0.8 SSW 11 13 6 7 1018.2 - 5.4
23/06:30am 14.0 12.6 12.3 89 0.9 SSW 11 13 6 7 1017.9 - 5.4
23/06:00am 14.2 12.5 12.5 89 0.9 SSW 13 15 7 8 1018.0 1017.9 5.4
23/05:30am 14.5 12.9 12.9 90 0.9 SSW 13 17 7 9 1017.7 - 5.4
23/05:00am 15.3 13.4 14.1 92 0.7 SSW 17 19 9 10 1017.8 - 5.2
23/04:30am 15.8 16.2 14.8 94 0.6 S 6 11 3 6 1017.2 - 5.0
23/04:00am 15.8 15.4 15.1 96 0.4 WSW 11 13 6 7 1017.9 - 5.0
23/03:30am 15.8 15.8 15.1 96 0.4 SW 9 11 5 6 1017.7 - 4.8
23/03:00am 15.8 15.8 15.1 96 0.4 SW 9 13 5 7 1017.8 1017.7 4.6
23/02:30am 15.8 15.7 14.9 94 0.5 SW 9 11 5 6 1018.2 - 4.4
23/02:00am 15.9 15.0 14.9 94 0.6 SW 13 17 7 9 1018.3 - 4.4
23/01:30am 15.8 13.7 15.1 96 0.4 ENE 20 22 11 12 1017.2 - 4.4
23/01:00am 16.0 16.6 15.3 96 0.4 WSW 6 7 3 4 1019.2 - 4.4
23/12:30am 15.9 16.8 15.2 96 0.4 SW 4 7 2 4 1018.8 - 4.4
23/12:00am 15.9 16.4 15.0 94 0.5 W 6 9 3 5 1019.2 1019.1 4.4
 
Date/Time
WST
Temp
°C
App
Temp
°C
Dew
Point
°C
Rel
Hum
%
Delta-T
°C
Wind Press
QNH
hPa
Press
MSL
hPa
Rain since
9am
mm
Dir  Spd
km/h
Gust
km/h
Spd
kts
Gust
kts
22/11:30pm 15.9 15.9 15.2 96 0.4 N 9 11 5 6 1019.6 - 4.2
22/11:00pm 16.1 17.5 15.4 96 0.4 W 2 7 1 4 1019.3 - 3.4
22/10:30pm 16.1 16.2 15.4 96 0.4 WSW 9 9 5 5 1019.5 - 2.6
22/10:00pm 16.2 16.6 15.2 94 0.6 SW 7 9 4 5 1019.5 - 2.2
22/09:30pm 16.3 16.3 15.3 94 0.6 WSW 9 9 5 5 1019.3 - 1.8
22/09:00pm 16.2 16.6 15.3 94 0.5 WSW 7 11 4 6 1019.0 1018.9 1.8
22/08:30pm 16.3 16.5 14.7 90 0.9 WNW 7 9 4 5 1018.8 - 1.8
22/08:00pm 16.3 17.9 14.9 91 0.8 CALM 0 0 0 0 1018.6 - 1.8
22/07:30pm 16.5 18.0 14.6 88 1.1 CALM 0 0 0 0 1018.5 - 1.6
22/07:00pm 16.4 16.6 14.8 90 0.9 WSW 7 9 4 5 1018.3 - 1.2
22/06:30pm 17.0 16.4 14.6 86 1.4 W 11 11 6 6 1018.1 - 0.8
22/06:00pm 17.4 17.6 14.1 81 1.9 S 6 7 3 4 1017.5 1017.4 0.6
22/05:30pm 17.6 17.0 13.5 77 2.3 S 9 11 5 6 1017.6 - 0.6
22/05:00pm 18.5 17.3 14.1 75 2.5 S 13 15 7 8 1017.3 - 0.6
22/04:30pm 17.9 16.4 13.1 73 2.7 SE 13 19 7 10 1017.4 - 0.6
22/04:00pm 18.0 16.2 12.0 68 3.3 SE 13 19 7 10 1017.2 - 0.6
22/03:30pm 17.6 15.2 12.7 73 2.7 SE 17 22 9 12 1017.5 - 0.6
22/03:00pm 17.8 14.6 11.8 68 3.3 SE 20 24 11 13 1017.6 1017.5 0.6
22/02:30pm 18.0 14.2 11.2 64 3.7 SE 22 30 12 16 1017.9 - 0.6
22/02:00pm 18.0 13.8 11.2 64 3.7 ESE 24 30 13 16 1018.1 - 0.6
22/01:30pm 17.9 13.6 11.9 68 3.3 SE 26 32 14 17 1018.2 - 0.6
22/01:00pm 17.7 14.4 12.7 72 2.8 SE 22 30 12 16 1019.1 - 0.6
22/12:30pm 17.3 14.9 14.3 82 1.7 SSE 20 24 11 13 1019.5 - 0.6
22/12:00pm 15.9 13.3 13.8 87 1.2 SSE 20 30 11 16 1019.7 1019.6 0.2
22/11:30am 16.3 13.1 13.1 81 1.8 SSE 22 30 12 16 1020.1 - 0.0
22/11:00am 16.8 13.4 12.4 75 2.4 SE 22 30 12 16 1020.4 - 0.0
22/10:30am 17.6 13.5 11.5 67 3.3 SSE 24 30 13 16 1020.7 - 0.0
22/10:00am 16.5 13.0 12.3 76 2.3 SSE 22 32 12 17 1020.8 - 0.0
22/09:30am 16.3 12.8 12.3 77 2.2 SSE 22 30 12 16 1020.5 - 0.0
22/09:00am 16.5 12.5 11.7 73 2.6 SSE 24 30 13 16 1020.1 1020.0 0.0
22/08:30am 16.5 13.3 11.9 74 2.5 SSE 20 28 11 15 1020.0 - 0.0
22/08:00am 16.0 13.2 12.5 80 1.9 SSE 19 26 10 14 1019.7 - 0.0
22/07:30am 15.8 13.0 12.5 81 1.8 S 19 24 10 13 1019.4 - 0.0
22/07:00am 15.7 13.7 12.6 82 1.7 SSE 15 20 8 11 1019.1 - 0.0
22/06:30am 15.2 13.3 13.0 87 1.2 S 15 17 8 9 1018.9 - 0.0
22/06:00am 15.0 13.9 13.2 89 1.0 S 11 15 6 8 1018.7 1018.6 0.0
22/05:30am 14.8 13.7 13.2 90 0.9 S 11 13 6 7 1018.5 - 0.0
22/05:00am 15.0 13.8 12.8 87 1.2 SSW 11 13 6 7 1018.8 - 0.0
22/04:30am 15.1 13.5 12.7 85 1.3 S 13 15 7 8 1018.5 - 0.0
22/04:00am 15.2 13.5 12.5 84 1.5 S 13 17 7 9 1018.1 - 0.0
22/03:30am 15.0 13.7 12.4 84 1.4 S 11 13 6 7 1018.4 - 0.0
22/03:00am 15.0 13.2 12.0 82 1.6 S 13 17 7 9 1018.3 1018.2 0.0
22/02:30am 14.8 13.0 12.0 83 1.5 S 13 17 7 9 1018.5 - 0.0
22/02:00am 15.1 13.1 11.6 79 1.9 S 13 17 7 9 1018.9 - 0.0
22/01:30am 15.3 12.9 11.4 77 2.1 S 15 19 8 10 1019.2 - 0.0
22/01:00am 15.4 13.1 11.7 78 2.0 S 15 19 8 10 1019.3 - 0.0
22/12:30am 15.4 13.2 12.1 81 1.8 S 15 17 8 9 1019.1 - 0.0
22/12:00am 15.5 13.3 12.0 79 1.9 S 15 19 8 10 1019.1 1019.0 0.0
 
Date/Time
WST
Temp
°C
App
Temp
°C
Dew
Point
°C
Rel
Hum
%
Delta-T
°C
Wind Press
QNH
hPa
Press
MSL
hPa
Rain since
9am
mm
Dir  Spd
km/h
Gust
km/h
Spd
kts
Gust
kts
21/11:30pm 15.1 14.4 13.1 88 1.1 SSW 9 9 5 5 1019.6 - 0.0
21/11:00pm 15.1 14.3 12.9 87 1.2 SW 9 13 5 7 1019.7 - 0.0
21/10:30pm 15.1 14.0 13.1 88 1.1 SSW 11 13 6 7 1020.0 - 0.0
21/10:00pm 15.3 14.5 12.9 85 1.3 SSW 9 13 5 7 1019.8 - 0.0
21/09:30pm 15.6 14.4 12.9 84 1.5 SW 11 13 6 7 1019.8 - 0.0
21/09:00pm 15.6 14.7 12.7 83 1.6 SW 9 13 5 7 1019.9 1019.8 0.0
21/08:30pm 15.8 14.9 12.5 81 1.8 SSW 9 11 5 6 1019.4 - 0.0
21/08:00pm 16.1 15.0 12.1 77 2.2 S 9 11 5 6 1019.5 - 0.0
21/07:30pm 16.5 14.9 11.5 72 2.7 SSW 11 13 6 7 1019.4 - 0.0
21/07:00pm 16.9 14.8 11.1 68 3.1 S 13 15 7 8 1018.8 - 0.0

Other Formats:

Comma delimited format used in spreadsheet applications
http://www.bom.gov.au/fwo/IDW60801/IDW60801.94302.axf

JavaScript Object Notation format (JSON) in row-major order
http://www.bom.gov.au/fwo/IDW60801/IDW60801.94302.json